A- A+ FrançaisEnglishEspañol中国

Services sur Internet Soldes sur Internet Des idées de cadeaux Météo Météo aéro

La météo à : Autours de vous Tarbes-Lourdes-PyrénéesRennes-St-Jacques Basle-Mulhouse Deauville-St-Gatien

manche à air

La météo aéronautique pour les pilotes, la préparation du vol avec les METAR (METeorological Aerodrome Report, message d'observation des conditions météorologiques pour l'aviation) et Les TAF (Terminal Aerodrome Forecast : message de prévision à court terme des conditions météorologiques pour l'aviation). Et les autres ressources comme les VAC (Visual Approch Chart) et les NOTAM (Notice To Airman) pour préprer les vols.

Aéroport Heringsdorf (Allemagne) / OACI EDAH/ IATA HDF

L'altitude de l'aéroport Heringsdorf est de 28 m = 92 ft. Il est situé à proximité de Heringsdorf (Allemagne). La météo générale à 5 jours est disponible pour Garz situé à 1.1 km.

METAR de l'aéroport Heringsdorf - EDAH

EDAH 291020Z 22010KT 9999 BKN020 15/12 Q1003

Décodage du METAR de l'aéroport Heringsdorf (DE)

METAR émis par EDAH le dimanche 29 septembre 2019 à 10:20 heure TU. Attention ce METAR est obsolète car il a été émis il y a 19 heure et 49 minutes.

La visibilité est de supérieure à 10 km = supérieure à 6.2 sm.

La température est de 15°C = 59 °F et le point rosée est de 12°C = 54 °F . Ce qui correspond à 82% d'humidité relative.

Le QNH est de 1003 hPa = 29.62 inHg

Vent de 10 kt = 19 km/h, orienté à 220°.

Nuages : Couverture nuageuse fragmentée à 2000 ft = 610 mètres.

TAF de l'aéroport Heringsdorf - EDAH

EDAH 290800Z 2909/2918 21011KT 9999 BKN015 TEMPO 2909/2914 21015G25KT BKN012 TEMPO 2914/2918 RA BKN008

EDAH 290800Z 2909/2918 21011KT 9999 couverture nuageuse fragmentée à 015 temporairement 2909/2914 21015G25KT couverture nuageuse fragmentée à 012 temporairement 2914/2918 pluie couverture nuageuse fragmentée à 008

Aéroport à proximité de Heringsdorf

Météo générale à 5 jours à Garz (1.1 km)Aéroport Anklam (32 km)Aéroport Peenemunde (40 km)Aéroport Pasewalk Fransfelde (44 km)Aéroport Schmoldow (54 km)Aéroport Szczecin Goleniow (59 km)Aéroport Szczecin Dabie (63 km)

VAC de l'aéroport Heringsdorf - EDAH

La carte d'approche à vue (VAC Visual Approah Chart) est fournie sans aucune garantie de son actualité. Le pilote est le seul responsable de la vérification de sa validité avant de l'utiliser opérationnellement pour préparer un vol ou l'utiliser lors de sa navigation.

VAC de EDAH

Vue aérienne de l'aéroport Heringsdorf

NOTAM de l'aéroport Heringsdorf

Les NOTAM sont fournis sans aucune garantie de leur actualité. Le pilote est le seul responsable de la vérification de sa validité avant de l'utiliser opérationnellement pour préparer un vol ou l'utiliser lors de sa navigation.

Pas de NOTAM

Sources des données